createdAt,value
2022-12-01T00:01:12.044Z,3.15
2022-12-01T00:03:39.360Z,3.09
2022-12-01T00:06:14.578Z,3.11
2022-12-01T00:08:42.498Z,3.13
2022-12-01T00:11:11.692Z,3.07
2022-12-01T00:13:38.580Z,3.07
2022-12-01T00:16:16.472Z,3.10
2022-12-01T00:18:43.563Z,3.09
2022-12-01T00:21:17.972Z,3.11
2022-12-01T00:23:50.857Z,3.14
2022-12-01T00:26:20.404Z,3.15
2022-12-01T00:28:52.213Z,3.08
2022-12-01T00:31:19.987Z,3.09
2022-12-01T00:33:46.836Z,3.08
2022-12-01T00:36:14.346Z,3.07
2022-12-01T00:38:41.555Z,3.07
2022-12-01T00:41:09.058Z,3.10
2022-12-01T00:43:36.048Z,3.05
2022-12-01T00:46:03.207Z,3.07
2022-12-01T00:48:30.100Z,3.04
2022-12-01T00:50:57.047Z,3.06
2022-12-01T00:53:24.265Z,3.01
2022-12-01T00:55:51.255Z,2.93
2022-12-01T00:58:18.005Z,2.96
2022-12-01T01:00:45.017Z,2.96
2022-12-01T01:03:11.975Z,2.98
2022-12-01T01:05:40.605Z,2.93
2022-12-01T01:08:12.188Z,2.94
2022-12-01T01:10:42.297Z,2.85
2022-12-01T01:13:09.585Z,2.84
2022-12-01T01:15:36.767Z,2.90
2022-12-01T01:18:04.080Z,2.90
2022-12-01T01:20:31.641Z,2.88
2022-12-01T01:22:59.037Z,2.88
2022-12-01T01:25:25.979Z,2.82
2022-12-01T01:27:52.792Z,2.87
2022-12-01T01:30:20.248Z,2.87
2022-12-01T01:32:47.437Z,2.90
2022-12-01T01:35:14.251Z,2.87
2022-12-01T01:37:41.017Z,2.83
2022-12-01T01:40:08.430Z,2.86
2022-12-01T01:42:35.146Z,2.86
2022-12-01T01:45:01.969Z,2.74
2022-12-01T01:47:40.783Z,2.70
2022-12-01T01:50:11.329Z,2.67
2022-12-01T01:52:55.033Z,2.68
2022-12-01T01:55:21.860Z,2.68
2022-12-01T01:57:48.761Z,2.75
2022-12-01T02:00:18.849Z,2.75
2022-12-01T02:02:47.433Z,2.75
2022-12-01T02:05:32.118Z,2.72
2022-12-01T02:08:00.335Z,2.65
2022-12-01T02:11:04.890Z,2.63
2022-12-01T02:13:43.470Z,2.67
2022-12-01T02:16:28.385Z,2.67
2022-12-01T02:19:17.002Z,2.68
2022-12-01T02:22:03.019Z,2.62
2022-12-01T02:24:49.101Z,2.60
2022-12-01T02:27:30.984Z,2.60
2022-12-01T02:30:03.953Z,2.63
2022-12-01T02:32:44.175Z,2.64
2022-12-01T02:35:29.952Z,2.63
2022-12-01T02:38:18.137Z,2.55
2022-12-01T02:40:56.226Z,2.53
2022-12-01T02:43:29.574Z,2.47
2022-12-01T02:46:37.793Z,2.41
2022-12-01T02:49:10.444Z,2.32
2022-12-01T02:51:40.184Z,2.38
2022-12-01T02:54:08.636Z,2.39
2022-12-01T02:56:35.426Z,2.42
2022-12-01T02:59:02.273Z,2.37
2022-12-01T03:01:35.098Z,2.38
2022-12-01T03:04:07.846Z,2.37
2022-12-01T03:06:43.518Z,2.36
2022-12-01T03:09:18.058Z,2.29
2022-12-01T03:12:30.017Z,2.34
2022-12-01T03:15:11.598Z,2.31
2022-12-01T03:18:01.268Z,2.24
2022-12-01T03:20:42.806Z,2.23
2022-12-01T03:23:16.038Z,2.22
2022-12-01T03:25:47.997Z,2.23
2022-12-01T03:28:21.546Z,2.23
2022-12-01T03:30:52.560Z,2.21
2022-12-01T03:33:27.280Z,2.18
2022-12-01T03:36:02.081Z,2.14
2022-12-01T03:38:30.637Z,2.09
2022-12-01T03:41:01.723Z,2.03
2022-12-01T03:43:34.671Z,1.97
2022-12-01T03:46:22.412Z,1.89
2022-12-01T03:48:50.476Z,1.80
2022-12-01T03:51:38.653Z,1.77
2022-12-01T03:54:16.530Z,1.82
2022-12-01T03:56:49.890Z,1.82
2022-12-01T03:59:21.018Z,1.80
2022-12-01T04:01:48.304Z,1.76
2022-12-01T04:04:15.336Z,1.74
2022-12-01T04:06:46.173Z,1.72
2022-12-01T04:09:13.514Z,1.80
2022-12-01T04:11:40.513Z,1.79
2022-12-01T04:14:07.222Z,1.82
2022-12-01T04:16:34.110Z,1.77
2022-12-01T04:19:00.907Z,1.76
2022-12-01T04:21:27.717Z,1.70
2022-12-01T04:23:54.446Z,1.68
2022-12-01T04:26:21.266Z,1.73
2022-12-01T04:28:48.363Z,1.75
2022-12-01T04:31:15.414Z,1.77
2022-12-01T04:33:42.297Z,1.80
2022-12-01T04:36:09.619Z,1.75
2022-12-01T04:38:36.528Z,1.75
2022-12-01T04:41:14.457Z,1.79
2022-12-01T04:43:42.014Z,1.80
2022-12-01T04:46:09.506Z,1.76
2022-12-01T04:48:39.997Z,1.74
2022-12-01T04:51:08.412Z,1.70
2022-12-01T04:53:36.578Z,1.75
2022-12-01T04:56:04.186Z,1.78
2022-12-01T04:58:32.889Z,1.76
2022-12-01T05:01:04.790Z,1.75
2022-12-01T05:03:31.670Z,1.71
2022-12-01T05:06:07.326Z,1.72
2022-12-01T05:08:34.280Z,1.66
2022-12-01T05:11:01.998Z,1.67
2022-12-01T05:13:28.879Z,1.71
2022-12-01T05:16:05.451Z,1.71
2022-12-01T05:18:32.369Z,1.68
2022-12-01T05:20:59.330Z,1.65
2022-12-01T05:23:28.190Z,1.64
2022-12-01T05:25:55.542Z,1.70
2022-12-01T05:28:24.062Z,1.65
2022-12-01T05:30:51.592Z,1.70
2022-12-01T05:33:18.521Z,1.67
2022-12-01T05:35:45.365Z,1.72
2022-12-01T05:38:12.144Z,1.70
2022-12-01T05:40:38.911Z,1.64
2022-12-01T05:43:06.762Z,1.60
2022-12-01T05:45:35.367Z,1.64
2022-12-01T05:48:03.018Z,1.68
2022-12-01T05:50:30.934Z,1.72
2022-12-01T05:52:57.992Z,1.68
2022-12-01T05:55:24.824Z,1.67
2022-12-01T05:57:51.658Z,1.70
2022-12-01T06:00:18.917Z,1.71
2022-12-01T06:02:45.795Z,1.67
2022-12-01T06:05:12.815Z,1.63
2022-12-01T06:07:39.563Z,1.63
2022-12-01T06:10:07.446Z,1.62
2022-12-01T06:12:34.244Z,1.58
2022-12-01T06:15:01.077Z,1.54
2022-12-01T06:17:28.075Z,1.57
2022-12-01T06:19:55.237Z,1.57
2022-12-01T06:22:22.001Z,1.63
2022-12-01T06:24:48.794Z,1.64
2022-12-01T06:27:15.565Z,1.67
2022-12-01T06:29:42.555Z,1.68
2022-12-01T06:32:09.624Z,1.66
2022-12-01T06:34:36.431Z,1.73
2022-12-01T06:37:03.266Z,1.70
2022-12-01T06:39:30.088Z,1.66
2022-12-01T06:41:56.870Z,1.71
2022-12-01T06:44:23.696Z,1.73
2022-12-01T06:46:50.463Z,1.72
2022-12-01T06:49:17.231Z,1.71
2022-12-01T06:51:44.890Z,1.72
2022-12-01T06:54:12.400Z,1.70
2022-12-01T06:56:39.282Z,1.65
2022-12-01T06:59:06.522Z,1.62
2022-12-01T07:01:33.573Z,1.62
2022-12-01T07:04:00.543Z,1.64
2022-12-01T07:06:30.284Z,1.63
2022-12-01T07:08:57.107Z,1.64
2022-12-01T07:11:23.930Z,1.64
2022-12-01T07:13:55.929Z,1.64
2022-12-01T07:16:23.286Z,1.64
2022-12-01T07:18:50.642Z,1.65
2022-12-01T07:21:17.515Z,1.63
2022-12-01T07:23:44.394Z,1.64
2022-12-01T07:26:14.441Z,1.68
2022-12-01T07:28:41.619Z,1.71
2022-12-01T07:31:16.771Z,1.67
2022-12-01T07:33:43.904Z,1.68
2022-12-01T07:36:12.116Z,1.71
2022-12-01T07:38:40.259Z,1.72
2022-12-01T07:41:13.257Z,1.70
2022-12-01T07:43:40.799Z,1.67
2022-12-01T07:46:23.727Z,1.69
2022-12-01T07:48:52.533Z,1.71
2022-12-01T07:51:21.121Z,1.64
2022-12-01T07:53:50.656Z,1.63
2022-12-01T07:56:19.219Z,1.65
2022-12-01T07:58:46.175Z,1.65
2022-12-01T08:01:18.526Z,1.73
2022-12-01T08:03:45.364Z,1.77
2022-12-01T08:06:12.262Z,1.79
2022-12-01T08:08:40.621Z,1.80
2022-12-01T08:11:12.280Z,1.84
2022-12-01T08:13:40.126Z,1.86
2022-12-01T08:16:10.484Z,1.85
2022-12-01T08:18:38.981Z,1.80
2022-12-01T08:21:07.778Z,1.80
2022-12-01T08:23:34.767Z,1.77
2022-12-01T08:26:07.952Z,1.82
2022-12-01T08:28:40.476Z,1.87
2022-12-01T08:31:31.955Z,1.89
2022-12-01T08:33:59.511Z,1.88
2022-12-01T08:36:26.352Z,1.97
2022-12-01T08:38:54.991Z,2.01
2022-12-01T08:41:23.471Z,2.02
2022-12-01T08:43:57.788Z,2.03
2022-12-01T08:46:29.549Z,2.07
2022-12-01T08:48:56.417Z,2.05
2022-12-01T08:51:24.051Z,2.04
2022-12-01T08:53:51.478Z,2.04
2022-12-01T08:56:23.273Z,2.03
2022-12-01T08:58:50.234Z,2.06
2022-12-01T09:01:18.388Z,2.04
2022-12-01T09:03:46.149Z,2.06
2022-12-01T09:06:19.155Z,2.09
2022-12-01T09:08:46.280Z,2.15
2022-12-01T09:11:15.698Z,2.15
2022-12-01T09:13:43.855Z,2.13
2022-12-01T09:16:14.185Z,2.18
2022-12-01T09:18:41.677Z,2.18
2022-12-01T09:21:20.909Z,2.17
2022-12-01T09:23:48.427Z,2.21
2022-12-01T09:26:16.429Z,2.24
2022-12-01T09:28:43.183Z,2.29
2022-12-01T09:31:12.146Z,2.28
2022-12-01T09:33:39.293Z,2.29
2022-12-01T09:36:08.336Z,2.28
2022-12-01T09:38:36.975Z,2.29
2022-12-01T09:41:23.155Z,2.37
2022-12-01T09:44:00.716Z,2.36
2022-12-01T09:46:32.778Z,2.38
2022-12-01T09:49:02.694Z,2.42
2022-12-01T09:51:30.182Z,2.46
2022-12-01T09:53:59.890Z,2.48
2022-12-01T09:56:39.755Z,2.48
2022-12-01T09:59:13.575Z,2.50
2022-12-01T10:01:44.539Z,2.53
2022-12-01T10:04:16.805Z,2.54
2022-12-01T10:06:54.360Z,2.47
2022-12-01T10:09:28.357Z,2.48
2022-12-01T10:12:05.982Z,2.49
2022-12-01T10:14:35.834Z,2.54
2022-12-01T10:17:23.594Z,2.55
2022-12-01T10:20:17.212Z,2.56
2022-12-01T10:23:05.283Z,2.60
2022-12-01T10:25:39.097Z,2.60
2022-12-01T10:28:23.825Z,2.67
2022-12-01T10:30:53.393Z,2.67
2022-12-01T10:33:24.935Z,2.72
2022-12-01T10:35:51.807Z,2.74
2022-12-01T10:38:35.467Z,2.78
2022-12-01T10:41:05.587Z,2.79
2022-12-01T10:43:44.279Z,2.82
2022-12-01T10:46:23.628Z,2.84
2022-12-01T10:48:58.708Z,2.85
2022-12-01T10:51:27.437Z,2.84
2022-12-01T10:54:08.089Z,2.88
2022-12-01T10:56:39.609Z,2.91
2022-12-01T10:59:22.858Z,2.91
2022-12-01T11:01:49.908Z,2.94
2022-12-01T11:04:34.563Z,2.94
2022-12-01T11:07:02.225Z,2.97
2022-12-01T11:09:30.682Z,2.99
2022-12-01T11:12:02.831Z,2.98
2022-12-01T11:14:51.181Z,3.00
2022-12-01T11:17:39.215Z,3.06
2022-12-01T11:20:26.330Z,3.11
2022-12-01T11:23:13.571Z,3.14
2022-12-01T11:25:40.372Z,3.10
2022-12-01T11:28:07.444Z,3.09
2022-12-01T11:30:34.367Z,3.14
2022-12-01T11:33:04.755Z,3.18
2022-12-01T11:35:35.101Z,3.16
2022-12-01T11:38:28.871Z,3.18
2022-12-01T11:41:00.582Z,3.20
2022-12-01T11:43:34.480Z,3.23
2022-12-01T11:46:05.495Z,3.26
2022-12-01T11:48:34.409Z,3.33
2022-12-01T11:51:09.439Z,3.38
2022-12-01T11:53:41.680Z,3.40
2022-12-01T11:56:22.636Z,3.46
2022-12-01T11:59:01.361Z,3.49
2022-12-01T12:01:50.688Z,3.49
2022-12-01T12:04:35.524Z,3.49
2022-12-01T12:07:24.506Z,3.48
2022-12-01T12:09:59.744Z,3.43
2022-12-01T12:12:38.345Z,3.47
2022-12-01T12:15:23.124Z,3.46
2022-12-01T12:17:55.824Z,3.48
2022-12-01T12:20:37.773Z,3.48
2022-12-01T12:23:26.315Z,3.48
2022-12-01T12:26:08.099Z,3.49
2022-12-01T12:28:52.706Z,3.48
2022-12-01T12:31:35.223Z,3.48
2022-12-01T12:34:39.019Z,3.47
2022-12-01T12:37:13.205Z,3.49
2022-12-01T12:40:09.497Z,3.50
2022-12-01T12:42:55.432Z,3.53
2022-12-01T12:45:32.421Z,3.51
2022-12-01T12:48:23.378Z,3.53
2022-12-01T12:51:17.374Z,3.53
2022-12-01T12:53:57.920Z,3.55
2022-12-01T12:56:27.772Z,3.56
2022-12-01T12:58:59.485Z,3.56
2022-12-01T13:01:34.582Z,3.58
2022-12-01T13:04:09.397Z,3.55
2022-12-01T13:06:51.896Z,3.57
2022-12-01T13:09:38.186Z,3.53
2022-12-01T13:12:13.478Z,3.55
2022-12-01T13:14:46.154Z,3.55
2022-12-01T13:17:32.171Z,3.55
2022-12-01T13:19:59.076Z,3.50
2022-12-01T13:22:32.972Z,3.52
2022-12-01T13:25:00.247Z,3.47
2022-12-01T13:27:31.684Z,3.49
2022-12-01T13:30:00.115Z,3.53
2022-12-01T13:32:40.052Z,3.54
2022-12-01T13:35:37.427Z,3.55
2022-12-01T13:38:36.852Z,3.62
2022-12-01T13:41:35.178Z,3.58
2022-12-01T13:44:21.790Z,3.57
2022-12-01T13:46:48.576Z,3.59
2022-12-01T13:49:37.143Z,3.55
2022-12-01T13:52:22.245Z,3.54
2022-12-01T13:55:07.103Z,3.55
2022-12-01T13:57:39.582Z,3.52
2022-12-01T14:00:06.493Z,3.54
2022-12-01T14:02:39.326Z,3.57
2022-12-01T14:05:24.587Z,3.54
2022-12-01T14:07:54.900Z,3.52
2022-12-01T14:10:31.679Z,3.53
2022-12-01T14:13:04.280Z,3.52
2022-12-01T14:15:31.035Z,3.50
2022-12-01T14:18:04.885Z,3.50
2022-12-01T14:20:35.819Z,3.48
2022-12-01T14:23:14.481Z,3.48
2022-12-01T14:25:42.557Z,3.48
2022-12-01T14:28:17.408Z,3.47
2022-12-01T14:30:44.909Z,3.50
2022-12-01T14:33:54.410Z,3.48
2022-12-01T14:36:23.952Z,3.44
2022-12-01T14:38:59.973Z,3.44
2022-12-01T14:41:38.215Z,3.40
2022-12-01T14:44:33.286Z,3.39
2022-12-01T14:47:00.204Z,3.39
2022-12-01T14:49:49.459Z,3.36
2022-12-01T14:52:28.341Z,3.35
2022-12-01T14:55:00.813Z,3.34
2022-12-01T14:57:33.024Z,3.33
2022-12-01T15:00:12.323Z,3.35
2022-12-01T15:02:51.534Z,3.32
2022-12-01T15:05:21.168Z,3.34
2022-12-01T15:07:50.918Z,3.34
2022-12-01T15:10:25.826Z,3.32
2022-12-01T15:12:54.043Z,3.31
2022-12-01T15:15:26.342Z,3.29
2022-12-01T15:17:54.863Z,3.29
2022-12-01T15:20:37.454Z,3.24
2022-12-01T15:23:15.847Z,3.22
2022-12-01T15:25:45.587Z,3.22
2022-12-01T15:28:18.218Z,3.21
2022-12-01T15:30:48.579Z,3.24
2022-12-01T15:33:36.776Z,3.20
2022-12-01T15:36:05.390Z,3.23
2022-12-01T15:38:35.800Z,3.24
2022-12-01T15:43:57.380Z,3.22
2022-12-01T15:46:32.501Z,3.20
2022-12-01T15:49:21.456Z,3.19
2022-12-01T15:51:50.559Z,3.19
2022-12-01T15:54:26.771Z,3.19
2022-12-01T15:56:55.841Z,3.19
2022-12-01T15:59:44.533Z,3.20
2022-12-01T16:02:20.754Z,3.19
2022-12-01T16:04:49.611Z,3.16
2022-12-01T16:07:16.695Z,3.11
2022-12-01T16:09:58.933Z,3.09
2022-12-01T16:12:28.124Z,3.09
2022-12-01T16:15:00.997Z,3.03
2022-12-01T16:17:42.030Z,3.04
2022-12-01T16:20:22.427Z,3.00
2022-12-01T16:22:54.187Z,2.97
2022-12-01T16:25:30.512Z,2.97
2022-12-01T16:27:58.523Z,2.94
2022-12-01T16:30:34.250Z,2.93
2022-12-01T16:33:13.923Z,2.91
2022-12-01T16:35:41.316Z,2.91
2022-12-01T16:38:17.875Z,2.96
2022-12-01T16:40:48.094Z,2.96
2022-12-01T16:43:20.447Z,2.98
2022-12-01T16:45:48.939Z,2.99
2022-12-01T16:48:16.579Z,2.98
2022-12-01T16:50:45.967Z,2.97
2022-12-01T16:53:13.674Z,2.94
2022-12-01T16:55:51.572Z,2.86
2022-12-01T16:58:19.171Z,2.79
2022-12-01T17:00:46.307Z,2.78
2022-12-01T17:03:17.243Z,2.72
2022-12-01T17:05:44.132Z,2.67
2022-12-01T17:08:11.667Z,2.60
2022-12-01T17:10:43.229Z,2.59
2022-12-01T17:13:10.771Z,2.55
2022-12-01T17:15:44.224Z,2.50
2022-12-01T17:18:11.600Z,2.47
2022-12-01T17:20:39.100Z,2.40
2022-12-01T17:23:06.561Z,2.37
2022-12-01T17:25:34.141Z,2.35
2022-12-01T17:28:01.390Z,2.36
2022-12-01T17:30:28.178Z,2.35
2022-12-01T17:32:58.021Z,2.31
2022-12-01T17:35:28.465Z,2.33
2022-12-01T17:37:55.395Z,2.28
2022-12-01T17:40:23.188Z,2.26
2022-12-01T17:42:50.861Z,2.25
2022-12-01T17:45:19.413Z,2.23
2022-12-01T17:47:46.830Z,2.19
2022-12-01T17:50:13.709Z,2.16
2022-12-01T17:52:40.825Z,2.18
2022-12-01T17:55:08.132Z,2.12
2022-12-01T17:57:35.705Z,2.07
2022-12-01T18:00:02.907Z,2.04
2022-12-01T18:02:35.686Z,2.05
2022-12-01T18:05:03.113Z,2.02
2022-12-01T18:07:30.606Z,2.01
2022-12-01T18:09:57.987Z,1.99
2022-12-01T18:12:25.303Z,1.97
2022-12-01T18:14:52.566Z,1.96
2022-12-01T18:17:20.276Z,1.94
2022-12-01T18:19:47.495Z,1.97
2022-12-01T18:22:14.865Z,1.94
2022-12-01T18:24:41.967Z,1.94
2022-12-01T18:27:10.803Z,1.94
2022-12-01T18:29:37.817Z,1.93
2022-12-01T18:32:05.521Z,1.91
2022-12-01T18:34:33.085Z,1.91
2022-12-01T18:37:03.592Z,1.88
2022-12-01T18:39:31.090Z,1.90
2022-12-01T18:41:59.009Z,1.89
2022-12-01T18:44:27.017Z,1.88
2022-12-01T18:46:54.696Z,1.88
2022-12-01T18:49:23.299Z,1.87
2022-12-01T18:51:50.648Z,1.87
2022-12-01T18:54:18.605Z,1.87
2022-12-01T18:56:51.043Z,1.88
2022-12-01T18:59:19.740Z,1.86
2022-12-01T19:01:49.686Z,1.87
2022-12-01T19:04:19.025Z,1.85
2022-12-01T19:06:47.382Z,1.84
2022-12-01T19:09:16.052Z,1.84
2022-12-01T19:11:44.364Z,1.84
2022-12-01T19:14:19.942Z,1.85
2022-12-01T19:16:48.592Z,1.86
2022-12-01T19:19:16.063Z,1.75
2022-12-01T19:21:43.754Z,1.75
2022-12-01T19:24:11.332Z,1.84
2022-12-01T19:26:40.463Z,1.83
2022-12-01T19:29:09.687Z,1.80
2022-12-01T19:31:37.857Z,1.78
2022-12-01T19:34:06.971Z,1.75
2022-12-01T19:36:35.534Z,1.72
2022-12-01T19:39:05.990Z,1.74
2022-12-01T19:41:39.275Z,1.72
2022-12-01T19:44:07.098Z,1.75
2022-12-01T19:46:35.434Z,1.74
2022-12-01T19:49:03.516Z,1.71
2022-12-01T19:51:34.788Z,1.70
2022-12-01T19:54:07.000Z,1.74
2022-12-01T19:56:35.431Z,1.72
2022-12-01T19:59:04.252Z,1.66
2022-12-01T20:01:31.930Z,1.72
2022-12-01T20:03:59.290Z,1.67
2022-12-01T20:06:31.579Z,1.68
2022-12-01T20:09:01.896Z,1.67
2022-12-01T20:11:30.473Z,1.68
2022-12-01T20:13:58.518Z,1.65
2022-12-01T20:16:28.163Z,1.61
2022-12-01T20:18:58.204Z,1.56
2022-12-01T20:21:28.320Z,1.53
2022-12-01T20:24:02.121Z,1.50
2022-12-01T20:26:35.684Z,1.47
2022-12-01T20:29:09.690Z,1.39
2022-12-01T20:31:39.044Z,1.42
2022-12-01T20:34:11.126Z,1.39
2022-12-01T20:36:40.341Z,1.40
2022-12-01T20:39:12.853Z,1.41
2022-12-01T20:41:42.173Z,1.37
2022-12-01T20:44:12.386Z,1.36
2022-12-01T20:46:42.180Z,1.38
2022-12-01T20:49:10.588Z,1.36
2022-12-01T20:51:39.592Z,1.35
2022-12-01T20:54:27.812Z,1.37
2022-12-01T20:57:00.607Z,1.41
2022-12-01T20:59:28.527Z,1.38
2022-12-01T21:01:55.823Z,1.44
2022-12-01T21:04:24.553Z,1.41
2022-12-01T21:06:56.787Z,1.40
2022-12-01T21:09:26.944Z,1.37
2022-12-01T21:11:56.736Z,1.35
2022-12-01T21:14:44.775Z,1.31
2022-12-01T21:17:44.016Z,1.27
2022-12-01T21:20:22.778Z,1.32
2022-12-01T21:22:51.755Z,1.36
2022-12-01T21:25:22.560Z,1.39
2022-12-01T21:27:50.059Z,1.38
2022-12-01T21:30:20.377Z,1.37
2022-12-01T21:32:48.961Z,1.37
2022-12-01T21:35:25.143Z,1.35
2022-12-01T21:38:00.289Z,1.36
2022-12-01T21:40:27.679Z,1.38
2022-12-01T21:42:56.348Z,1.37
2022-12-01T21:45:29.543Z,1.37
2022-12-01T21:48:18.559Z,1.37
2022-12-01T21:50:50.836Z,1.36
2022-12-01T21:53:21.442Z,1.35
2022-12-01T21:55:48.495Z,1.32
2022-12-01T21:58:27.164Z,1.34
2022-12-01T22:00:56.197Z,1.28
2022-12-01T22:03:37.164Z,1.28
2022-12-01T22:09:10.702Z,1.21
2022-12-01T22:11:37.474Z,1.14
2022-12-01T22:14:13.578Z,1.14
2022-12-01T22:16:44.151Z,1.12
2022-12-01T22:19:16.726Z,1.08
2022-12-01T22:21:48.456Z,1.08
2022-12-01T22:24:27.100Z,1.07
2022-12-01T22:27:09.578Z,1.11
2022-12-01T22:29:41.781Z,1.15
2022-12-01T22:32:14.546Z,1.21
2022-12-01T22:34:53.951Z,1.20
2022-12-01T22:37:30.113Z,1.15
2022-12-01T22:39:57.609Z,1.16
2022-12-01T22:42:33.539Z,1.15
2022-12-01T22:45:19.111Z,1.20
2022-12-01T22:47:46.104Z,1.12
2022-12-01T22:50:27.935Z,1.11
2022-12-01T22:53:00.085Z,1.08
2022-12-01T22:55:26.845Z,1.09
2022-12-01T22:57:54.592Z,1.07
2022-12-01T23:00:23.176Z,1.06
2022-12-01T23:02:52.365Z,1.02
2022-12-01T23:05:26.455Z,1.00
2022-12-01T23:07:54.811Z,0.95
2022-12-01T23:10:24.436Z,0.93
2022-12-01T23:12:53.565Z,0.91
2022-12-01T23:15:31.314Z,0.87
2022-12-01T23:18:19.417Z,0.90
2022-12-01T23:20:54.042Z,0.90
2022-12-01T23:23:42.509Z,0.85
2022-12-01T23:26:09.484Z,0.84
2022-12-01T23:28:37.639Z,0.82
2022-12-01T23:31:05.266Z,0.85
2022-12-01T23:33:33.692Z,0.86
2022-12-01T23:36:06.711Z,0.88
2022-12-01T23:38:38.610Z,0.87
2022-12-01T23:41:26.046Z,0.89
2022-12-01T23:44:02.062Z,0.89
2022-12-01T23:46:29.236Z,0.86
2022-12-01T23:49:01.354Z,0.83
2022-12-01T23:51:30.892Z,0.83
2022-12-01T23:54:00.763Z,0.83
2022-12-01T23:56:31.177Z,0.81
2022-12-01T23:59:00.747Z,0.82
